createdAt,value
2023-12-19T00:00:55.983Z,0.00
2023-12-19T00:01:55.942Z,0.00
2023-12-19T00:02:55.950Z,0.00
2023-12-19T00:03:55.977Z,0.00
2023-12-19T00:04:55.917Z,0.00
2023-12-19T00:05:55.998Z,0.00
2023-12-19T00:06:55.907Z,0.00
2023-12-19T00:07:55.908Z,0.00
2023-12-19T00:08:55.857Z,0.00
2023-12-19T00:09:55.964Z,0.00
2023-12-19T00:10:55.895Z,0.00
2023-12-19T00:11:55.923Z,0.00
2023-12-19T00:12:55.875Z,0.00
2023-12-19T00:13:55.829Z,0.00
2023-12-19T00:14:55.801Z,0.00
2023-12-19T00:15:55.863Z,0.00
2023-12-19T00:16:55.785Z,0.00
2023-12-19T00:17:55.868Z,0.00
2023-12-19T00:18:55.834Z,0.00
2023-12-19T00:19:55.948Z,0.00
2023-12-19T00:20:55.725Z,0.00
2023-12-19T00:21:55.862Z,0.00
2023-12-19T00:22:55.725Z,0.00
2023-12-19T00:23:55.717Z,0.00
2023-12-19T00:24:55.713Z,0.00
2023-12-19T00:25:55.704Z,0.00
2023-12-19T00:26:55.683Z,0.00
2023-12-19T00:27:55.718Z,0.00
2023-12-19T00:28:55.651Z,0.00
2023-12-19T00:29:55.652Z,0.00
2023-12-19T00:30:55.683Z,0.00
2023-12-19T00:31:55.638Z,0.00
2023-12-19T00:32:55.688Z,0.00
2023-12-19T00:33:55.678Z,0.00
2023-12-19T00:34:55.743Z,0.00
2023-12-19T00:35:55.609Z,0.00
2023-12-19T00:36:55.660Z,0.00
2023-12-19T00:37:55.586Z,0.00
2023-12-19T00:38:55.548Z,0.00
2023-12-19T00:39:55.624Z,0.00
2023-12-19T00:40:55.530Z,0.00
2023-12-19T00:41:55.529Z,0.00
2023-12-19T00:42:55.528Z,0.00
2023-12-19T00:43:55.525Z,0.00
2023-12-19T00:44:55.480Z,0.00
2023-12-19T00:45:55.515Z,0.00
2023-12-19T00:46:55.473Z,0.00
2023-12-19T00:47:55.538Z,0.00
2023-12-19T00:48:55.630Z,0.00
2023-12-19T00:49:55.497Z,0.00
2023-12-19T00:50:55.423Z,0.00
2023-12-19T00:51:55.502Z,0.00
2023-12-19T00:52:55.393Z,0.00
2023-12-19T00:53:55.416Z,0.00
2023-12-19T00:54:55.385Z,0.00
2023-12-19T00:55:55.386Z,0.00
2023-12-19T00:56:55.359Z,0.00
2023-12-19T00:57:55.420Z,0.00
2023-12-19T00:58:55.344Z,0.00
2023-12-19T00:59:55.355Z,0.00
2023-12-19T01:00:55.382Z,0.00
2023-12-19T01:01:55.324Z,0.00
2023-12-19T01:02:55.292Z,0.00
2023-12-19T01:03:55.425Z,0.00
2023-12-19T01:04:55.424Z,0.00
2023-12-19T01:05:55.321Z,0.00
2023-12-19T01:06:55.380Z,0.00
2023-12-19T01:07:55.298Z,0.00
2023-12-19T01:08:55.255Z,0.00
2023-12-19T01:09:55.274Z,0.00
2023-12-19T01:10:55.225Z,0.00
2023-12-19T01:11:55.235Z,0.00
2023-12-19T01:12:55.193Z,0.00
2023-12-19T01:13:55.244Z,0.00
2023-12-19T01:14:55.174Z,0.00
2023-12-19T01:15:55.210Z,0.00
2023-12-19T01:16:55.148Z,0.00
2023-12-19T01:17:55.173Z,0.00
2023-12-19T01:18:55.184Z,0.00
2023-12-19T01:19:55.596Z,0.00
2023-12-19T01:20:55.123Z,0.00
2023-12-19T01:21:55.168Z,0.00
2023-12-19T01:22:55.085Z,0.00
2023-12-19T01:23:55.092Z,0.00
2023-12-19T01:24:55.144Z,0.00
2023-12-19T01:25:55.146Z,0.00
2023-12-19T01:26:55.091Z,0.00
2023-12-19T01:27:55.122Z,0.00
2023-12-19T01:28:55.022Z,0.00
2023-12-19T01:29:56.426Z,0.00
2023-12-19T01:30:55.085Z,0.00
2023-12-19T01:31:55.012Z,0.00
2023-12-19T01:32:55.042Z,0.00
2023-12-19T01:33:55.116Z,0.00
2023-12-19T01:34:54.995Z,0.00
2023-12-19T01:35:54.978Z,0.00
2023-12-19T01:36:57.403Z,0.00
2023-12-19T01:37:54.957Z,0.00
2023-12-19T01:38:54.909Z,0.00
2023-12-19T01:39:55.020Z,0.00
2023-12-19T01:40:54.899Z,0.00
2023-12-19T01:41:54.920Z,0.00
2023-12-19T01:42:54.905Z,0.00
2023-12-19T01:43:54.896Z,0.00
2023-12-19T01:44:54.870Z,0.00
2023-12-19T01:45:54.920Z,0.00
2023-12-19T01:46:54.842Z,0.00
2023-12-19T01:47:54.883Z,0.00
2023-12-19T01:48:54.960Z,0.00
2023-12-19T01:49:54.845Z,0.00
2023-12-19T01:50:54.801Z,0.00
2023-12-19T01:51:54.885Z,0.00
2023-12-19T01:52:54.787Z,0.00
2023-12-19T01:53:54.782Z,0.00
2023-12-19T01:54:54.824Z,0.00
2023-12-19T01:55:54.793Z,0.00
2023-12-19T01:56:54.760Z,0.00
2023-12-19T01:57:54.836Z,0.00
2023-12-19T01:58:54.743Z,0.00
2023-12-19T01:59:54.766Z,0.00
2023-12-19T02:00:54.797Z,0.00
2023-12-19T02:01:54.768Z,0.00
2023-12-19T02:02:54.719Z,0.00
2023-12-19T02:03:54.758Z,0.00
2023-12-19T02:04:54.676Z,0.00
2023-12-19T02:05:54.807Z,0.00
2023-12-19T02:06:54.661Z,0.00
2023-12-19T02:07:54.684Z,0.00
2023-12-19T02:08:54.681Z,0.00
2023-12-19T02:09:54.714Z,0.00
2023-12-19T02:10:54.678Z,0.00
2023-12-19T02:11:54.605Z,0.00
2023-12-19T02:12:54.679Z,0.00
2023-12-19T02:13:54.667Z,0.00
2023-12-19T02:14:54.569Z,0.00
2023-12-19T02:15:54.622Z,0.00
2023-12-19T02:16:54.573Z,0.00
2023-12-19T02:17:54.659Z,0.00
2023-12-19T02:18:54.569Z,0.00
2023-12-19T02:19:54.563Z,0.00
2023-12-19T02:20:54.571Z,0.00
2023-12-19T02:21:54.568Z,0.00
2023-12-19T02:22:54.514Z,0.00
2023-12-19T02:23:54.510Z,0.00
2023-12-19T02:24:54.496Z,0.00
2023-12-19T02:25:54.455Z,0.00
2023-12-19T02:26:54.449Z,0.00
2023-12-19T02:27:54.472Z,0.00
2023-12-19T02:28:54.552Z,0.00
2023-12-19T02:29:54.418Z,0.00
2023-12-19T02:30:54.456Z,0.00
2023-12-19T02:31:54.414Z,0.00
2023-12-19T02:32:55.643Z,0.00
2023-12-19T02:33:54.463Z,0.00
2023-12-19T02:34:54.423Z,0.00
2023-12-19T02:35:54.329Z,0.00
2023-12-19T02:36:54.397Z,0.00
2023-12-19T02:37:54.313Z,0.00
2023-12-19T02:38:54.336Z,0.00
2023-12-19T02:39:54.317Z,0.00
2023-12-19T02:40:54.309Z,0.00
2023-12-19T02:41:54.272Z,0.00
2023-12-19T02:42:54.313Z,0.00
2023-12-19T02:43:55.578Z,0.00
2023-12-19T02:44:54.272Z,0.00
2023-12-19T02:45:54.305Z,0.00
2023-12-19T02:46:54.227Z,0.00
2023-12-19T02:47:54.314Z,0.00
2023-12-19T02:48:54.378Z,0.00
2023-12-19T02:49:54.253Z,0.00
2023-12-19T02:50:54.211Z,0.00
2023-12-19T02:51:54.223Z,0.00
2023-12-19T02:52:54.188Z,0.00
2023-12-19T02:53:54.133Z,0.00
2023-12-19T02:54:54.210Z,0.00
2023-12-19T02:55:54.130Z,0.00
2023-12-19T02:56:54.154Z,0.00
2023-12-19T02:57:54.130Z,0.00
2023-12-19T02:58:54.118Z,0.00
2023-12-19T02:59:54.081Z,0.00
2023-12-19T03:00:54.149Z,0.00
2023-12-19T03:01:54.132Z,0.00
2023-12-19T03:02:54.162Z,0.00
2023-12-19T03:03:54.139Z,0.00
2023-12-19T03:04:54.155Z,0.00
2023-12-19T03:05:54.110Z,0.00
2023-12-19T03:06:54.053Z,0.00
2023-12-19T03:07:54.002Z,0.00
2023-12-19T03:08:53.995Z,0.00
2023-12-19T03:09:53.989Z,0.00
2023-12-19T03:10:53.994Z,0.00
2023-12-19T03:11:53.981Z,0.00
2023-12-19T03:12:54.046Z,0.00
2023-12-19T03:13:53.927Z,0.00
2023-12-19T03:14:53.963Z,0.00
2023-12-19T03:15:53.956Z,0.00
2023-12-19T03:16:53.931Z,0.00
2023-12-19T03:17:53.996Z,0.00
2023-12-19T03:18:54.011Z,0.00
2023-12-19T03:19:53.925Z,0.00
2023-12-19T03:20:53.884Z,0.00
2023-12-19T03:21:53.847Z,0.00
2023-12-19T03:22:53.885Z,0.00
2023-12-19T03:23:53.833Z,0.00
2023-12-19T03:24:53.877Z,0.00
2023-12-19T03:25:53.813Z,0.00
2023-12-19T03:26:53.830Z,0.00
2023-12-19T03:27:53.843Z,0.00
2023-12-19T03:28:55.064Z,0.00
2023-12-19T03:29:53.798Z,0.00
2023-12-19T03:30:53.864Z,0.00
2023-12-19T03:31:53.749Z,0.00
2023-12-19T03:32:53.790Z,0.00
2023-12-19T03:33:53.765Z,0.00
2023-12-19T03:34:53.828Z,0.00
2023-12-19T03:35:53.712Z,0.00
2023-12-19T03:36:53.753Z,0.00
2023-12-19T03:37:53.693Z,0.00
2023-12-19T03:38:53.699Z,0.00
2023-12-19T03:39:53.706Z,0.00
2023-12-19T03:40:53.682Z,0.00
2023-12-19T03:42:10.715Z,0.00
2023-12-19T03:42:53.707Z,0.00
2023-12-19T03:43:53.624Z,0.00
2023-12-19T03:44:53.651Z,0.00
2023-12-19T03:45:53.647Z,0.00
2023-12-19T03:46:53.627Z,0.00
2023-12-19T03:47:53.637Z,0.00
2023-12-19T03:48:53.754Z,0.00
2023-12-19T03:49:53.620Z,0.00
2023-12-19T03:50:53.565Z,0.00
2023-12-19T03:51:53.555Z,0.00
2023-12-19T03:52:53.558Z,0.00
2023-12-19T03:53:53.523Z,0.00
2023-12-19T03:54:53.581Z,0.00
2023-12-19T03:55:53.499Z,0.00
2023-12-19T03:56:53.515Z,0.00
2023-12-19T03:57:53.495Z,0.00
2023-12-19T03:58:53.509Z,0.00
2023-12-19T03:59:53.448Z,0.00
2023-12-19T04:00:53.523Z,0.00
2023-12-19T04:01:53.506Z,0.00
2023-12-19T04:02:53.450Z,0.00
2023-12-19T04:03:53.534Z,0.00
2023-12-19T04:04:53.522Z,0.00
2023-12-19T04:05:53.389Z,0.00
2023-12-19T04:06:53.434Z,0.00
2023-12-19T04:07:53.378Z,0.00
2023-12-19T04:08:54.115Z,0.00
2023-12-19T04:09:53.419Z,0.00
2023-12-19T04:10:53.409Z,0.00
2023-12-19T04:11:53.336Z,0.00
2023-12-19T04:12:53.348Z,0.00
2023-12-19T04:13:53.298Z,0.00
2023-12-19T04:14:53.362Z,0.00
2023-12-19T04:15:53.332Z,0.00
2023-12-19T04:16:53.307Z,0.00
2023-12-19T04:17:53.326Z,0.00
2023-12-19T04:18:53.327Z,0.00
2023-12-19T04:19:53.306Z,0.00
2023-12-19T04:20:53.348Z,0.00
2023-12-19T04:21:53.265Z,0.00
2023-12-19T04:22:53.244Z,0.00
2023-12-19T04:23:53.197Z,0.00
2023-12-19T04:24:53.289Z,0.00
2023-12-19T04:25:53.182Z,0.00
2023-12-19T04:26:53.207Z,0.00
2023-12-19T04:27:53.185Z,0.00
2023-12-19T04:28:53.208Z,0.00
2023-12-19T04:29:53.136Z,0.00
2023-12-19T04:30:53.236Z,0.00
2023-12-19T04:31:53.167Z,0.00
2023-12-19T04:32:53.165Z,0.00
2023-12-19T04:33:54.507Z,0.00
2023-12-19T04:34:53.207Z,0.00
2023-12-19T04:35:53.091Z,0.00
2023-12-19T04:36:53.120Z,0.00
2023-12-19T04:37:53.073Z,0.00
2023-12-19T04:38:53.063Z,0.00
2023-12-19T04:39:53.076Z,0.00
2023-12-19T04:40:53.076Z,0.00
2023-12-19T04:41:53.036Z,0.00
2023-12-19T04:42:53.024Z,0.00
2023-12-19T04:43:53.010Z,0.00
2023-12-19T04:44:53.002Z,0.00
2023-12-19T04:45:53.042Z,0.00
2023-12-19T04:46:52.990Z,0.00
2023-12-19T04:47:52.992Z,0.00
2023-12-19T04:48:53.012Z,0.00
2023-12-19T04:49:52.961Z,0.00
2023-12-19T04:50:52.958Z,0.00
2023-12-19T04:51:52.960Z,0.00
2023-12-19T04:52:52.924Z,0.00
2023-12-19T04:53:52.886Z,0.00
2023-12-19T04:54:52.944Z,0.00
2023-12-19T04:55:52.868Z,0.00
2023-12-19T04:56:52.888Z,0.00
2023-12-19T04:57:52.867Z,0.00
2023-12-19T04:58:52.849Z,0.00
2023-12-19T04:59:52.828Z,0.00
2023-12-19T05:00:52.900Z,0.00
2023-12-19T05:01:52.882Z,0.00
2023-12-19T05:02:52.844Z,0.00
2023-12-19T05:03:52.842Z,0.00
2023-12-19T05:04:52.803Z,0.00
2023-12-19T05:05:52.781Z,0.00
2023-12-19T05:06:52.914Z,0.00
2023-12-19T05:07:52.754Z,0.00
2023-12-19T05:08:52.747Z,0.00
2023-12-19T05:09:52.793Z,0.00
2023-12-19T05:10:52.745Z,0.00
2023-12-19T05:11:52.734Z,0.00
2023-12-19T05:12:52.816Z,0.00
2023-12-19T05:13:52.698Z,0.00
2023-12-19T05:14:52.740Z,0.00
2023-12-19T05:15:52.711Z,0.00
2023-12-19T05:16:52.692Z,0.00
2023-12-19T05:17:52.693Z,0.00
2023-12-19T05:18:52.772Z,0.00
2023-12-19T05:19:55.961Z,0.00
2023-12-19T05:20:52.656Z,0.00
2023-12-19T05:21:52.612Z,0.00
2023-12-19T05:22:52.643Z,0.00
2023-12-19T05:23:52.579Z,0.00
2023-12-19T05:24:52.629Z,0.00
2023-12-19T05:25:52.570Z,0.00
2023-12-19T05:26:52.589Z,0.00
2023-12-19T05:27:52.547Z,0.00
2023-12-19T05:28:52.563Z,0.00
2023-12-19T05:29:52.511Z,0.00
2023-12-19T05:30:52.607Z,0.00
2023-12-19T05:31:52.518Z,0.00
2023-12-19T05:32:52.557Z,0.00
2023-12-19T05:33:52.527Z,0.00
2023-12-19T05:34:52.576Z,0.00
2023-12-19T05:35:52.472Z,0.00
2023-12-19T05:36:52.495Z,0.00
2023-12-19T05:37:52.439Z,0.00
2023-12-19T05:38:52.460Z,0.00
2023-12-19T05:39:52.469Z,0.00
2023-12-19T05:40:52.443Z,0.00
2023-12-19T05:41:52.400Z,0.00
2023-12-19T05:42:52.438Z,0.00
2023-12-19T05:43:52.373Z,0.00
2023-12-19T05:44:52.391Z,0.00
2023-12-19T05:45:52.426Z,0.00
2023-12-19T05:46:52.372Z,0.00
2023-12-19T05:47:52.584Z,0.00
2023-12-19T05:48:52.447Z,0.00
2023-12-19T05:49:52.340Z,0.00
2023-12-19T05:50:52.422Z,0.00
2023-12-19T05:51:52.326Z,0.00
2023-12-19T05:52:52.312Z,0.00
2023-12-19T05:53:52.261Z,0.00
2023-12-19T05:54:52.317Z,0.00
2023-12-19T05:55:52.262Z,0.00
2023-12-19T05:56:52.248Z,0.00
2023-12-19T05:57:52.244Z,0.00
2023-12-19T05:58:52.244Z,0.00
2023-12-19T05:59:52.230Z,0.00
2023-12-19T06:00:52.312Z,0.00
2023-12-19T06:01:52.273Z,0.00
2023-12-19T06:02:52.202Z,0.00
2023-12-19T06:03:52.265Z,0.00
2023-12-19T06:04:52.163Z,0.00
2023-12-19T06:05:52.210Z,0.00
2023-12-19T06:06:52.175Z,0.00
2023-12-19T06:07:52.199Z,0.00
2023-12-19T06:08:52.194Z,0.00
2023-12-19T06:09:52.156Z,0.00
2023-12-19T06:10:52.142Z,0.00
2023-12-19T06:11:52.134Z,0.00
2023-12-19T06:12:52.112Z,0.00
2023-12-19T06:13:52.081Z,0.00
2023-12-19T06:14:52.057Z,0.00
2023-12-19T06:15:52.139Z,0.00
2023-12-19T06:16:52.066Z,0.00
2023-12-19T06:17:52.018Z,0.00
2023-12-19T06:18:52.157Z,0.00
2023-12-19T06:19:52.253Z,0.00
2023-12-19T06:20:52.031Z,0.00
2023-12-19T06:21:51.983Z,0.00
2023-12-19T06:22:52.002Z,0.00
2023-12-19T06:23:51.953Z,0.00
2023-12-19T06:24:52.006Z,0.00
2023-12-19T06:25:51.965Z,0.00
2023-12-19T06:26:51.951Z,0.00
2023-12-19T06:27:52.000Z,0.00
2023-12-19T06:28:51.928Z,0.00
2023-12-19T06:29:51.930Z,0.00
2023-12-19T06:30:52.008Z,0.00
2023-12-19T06:31:51.901Z,1.00
2023-12-19T06:32:51.875Z,0.00
2023-12-19T06:33:51.957Z,0.00
2023-12-19T06:34:51.863Z,1.00
2023-12-19T06:35:51.825Z,1.00
2023-12-19T06:36:51.787Z,1.00
2023-12-19T06:37:51.883Z,0.00
2023-12-19T06:38:51.796Z,0.00
2023-12-19T06:39:51.856Z,0.00
2023-12-19T06:40:51.812Z,0.00
2023-12-19T06:41:51.735Z,1.00
2023-12-19T06:42:51.799Z,0.00
2023-12-19T06:43:51.774Z,0.00
2023-12-19T06:44:51.786Z,1.00
2023-12-19T06:45:51.728Z,1.00
2023-12-19T06:46:51.672Z,1.00
2023-12-19T06:47:51.809Z,1.00
2023-12-19T06:48:51.791Z,2.00
2023-12-19T06:49:51.705Z,2.00
2023-12-19T06:50:51.644Z,3.00
2023-12-19T06:51:51.844Z,2.00
2023-12-19T06:52:51.667Z,4.00
2023-12-19T06:53:51.663Z,5.00
2023-12-19T06:54:51.667Z,7.00
2023-12-19T06:55:51.680Z,8.00
2023-12-19T06:56:51.574Z,8.00
2023-12-19T06:57:51.658Z,10.00
2023-12-19T06:58:51.720Z,10.00
2023-12-19T06:59:51.536Z,11.00
2023-12-19T07:00:51.610Z,12.00
2023-12-19T07:01:51.546Z,13.00
2023-12-19T07:02:51.529Z,14.00
2023-12-19T07:03:51.661Z,14.00
2023-12-19T07:04:51.526Z,15.00
2023-12-19T07:05:51.512Z,15.00
2023-12-19T07:06:51.477Z,16.00
2023-12-19T07:07:51.499Z,16.00
2023-12-19T07:08:52.328Z,16.00
2023-12-19T07:09:51.612Z,16.00
2023-12-19T07:10:51.511Z,17.00
2023-12-19T07:11:51.448Z,17.00
2023-12-19T07:12:51.407Z,18.00
2023-12-19T07:13:51.394Z,19.00
2023-12-19T07:14:51.473Z,20.00
2023-12-19T07:15:51.417Z,21.00
2023-12-19T07:16:51.351Z,23.00
2023-12-19T07:17:51.562Z,24.00
2023-12-19T07:18:51.493Z,26.00
2023-12-19T07:19:51.416Z,28.00
2023-12-19T07:20:51.364Z,28.00
2023-12-19T07:21:51.334Z,30.00
2023-12-19T07:22:51.404Z,32.00
2023-12-19T07:23:51.399Z,34.00
2023-12-19T07:24:51.317Z,37.00
2023-12-19T07:25:51.309Z,40.00
2023-12-19T07:26:51.230Z,44.00
2023-12-19T07:27:51.302Z,46.00
2023-12-19T07:28:51.215Z,49.00
2023-12-19T07:29:51.267Z,51.00
2023-12-19T07:30:51.254Z,53.00
2023-12-19T07:31:51.219Z,56.00
2023-12-19T07:32:51.254Z,57.00
2023-12-19T07:33:51.292Z,58.00
2023-12-19T07:34:51.169Z,59.00
2023-12-19T07:35:51.175Z,60.00
2023-12-19T07:36:51.159Z,62.00
2023-12-19T07:37:51.131Z,61.00
2023-12-19T07:38:51.101Z,59.00
2023-12-19T07:39:51.179Z,58.00
2023-12-19T07:40:51.080Z,56.00
2023-12-19T07:41:51.094Z,56.00
2023-12-19T07:42:51.090Z,54.00
2023-12-19T07:43:51.152Z,54.00
2023-12-19T07:44:51.039Z,54.00
2023-12-19T07:45:51.099Z,54.00
2023-12-19T07:46:51.032Z,55.00
2023-12-19T07:47:51.059Z,56.00
2023-12-19T07:48:51.329Z,58.00
2023-12-19T07:49:51.304Z,59.00
2023-12-19T07:50:51.008Z,61.00
2023-12-19T07:51:51.026Z,60.00
2023-12-19T07:52:50.966Z,62.00
2023-12-19T07:53:50.984Z,62.00
2023-12-19T07:54:50.989Z,64.00
2023-12-19T07:55:50.971Z,66.00
2023-12-19T07:56:50.919Z,69.00
2023-12-19T07:57:50.944Z,72.00
2023-12-19T07:58:50.888Z,70.00
2023-12-19T07:59:50.908Z,74.00
2023-12-19T08:00:50.931Z,75.00
2023-12-19T08:01:51.028Z,78.00
2023-12-19T08:02:50.885Z,75.00
2023-12-19T08:03:50.956Z,80.00
2023-12-19T08:04:50.839Z,85.00
2023-12-19T08:05:50.838Z,83.00
2023-12-19T08:06:50.845Z,88.00
2023-12-19T08:07:50.835Z,85.00
2023-12-19T08:08:51.070Z,87.00
2023-12-19T08:09:50.856Z,85.00
2023-12-19T08:10:50.769Z,82.00
2023-12-19T08:11:50.828Z,83.00
2023-12-19T08:12:50.837Z,92.00
2023-12-19T08:13:50.773Z,103.00
2023-12-19T08:14:50.726Z,111.00
2023-12-19T08:15:50.807Z,106.00
2023-12-19T08:16:50.703Z,106.00
2023-12-19T08:17:50.926Z,107.00
2023-12-19T08:18:50.873Z,105.00
2023-12-19T08:19:50.788Z,109.00
2023-12-19T08:20:50.678Z,115.00
2023-12-19T08:21:50.728Z,120.00
2023-12-19T08:22:50.645Z,127.00
2023-12-19T08:23:50.673Z,134.00
2023-12-19T08:24:50.665Z,140.00
2023-12-19T08:25:50.643Z,151.00
2023-12-19T08:26:50.607Z,154.00
2023-12-19T08:27:50.664Z,154.00
2023-12-19T08:28:50.587Z,162.00
2023-12-19T08:29:50.598Z,166.00
2023-12-19T08:30:50.617Z,171.00
2023-12-19T08:31:50.564Z,177.00
2023-12-19T08:32:50.557Z,185.00
2023-12-19T08:33:50.649Z,194.00
2023-12-19T08:34:50.701Z,197.00
2023-12-19T08:35:50.530Z,194.00
2023-12-19T08:36:50.540Z,187.00
2023-12-19T08:37:50.511Z,177.00
2023-12-19T08:38:50.494Z,183.00
2023-12-19T08:39:50.531Z,196.00
2023-12-19T08:40:50.452Z,207.00
2023-12-19T08:41:50.459Z,218.00
2023-12-19T08:42:50.460Z,237.00
2023-12-19T08:43:50.453Z,267.00
2023-12-19T08:44:50.416Z,269.00
2023-12-19T08:45:50.522Z,279.00
2023-12-19T08:46:50.386Z,284.00
2023-12-19T08:47:50.486Z,302.00
2023-12-19T08:48:50.461Z,336.00
2023-12-19T08:49:50.419Z,300.00
2023-12-19T08:50:50.952Z,343.00
2023-12-19T08:51:50.444Z,327.00
2023-12-19T08:52:50.398Z,305.00
2023-12-19T08:53:50.346Z,282.00
2023-12-19T08:54:50.356Z,270.00
2023-12-19T08:55:50.353Z,268.00
2023-12-19T08:56:50.362Z,264.00
2023-12-19T08:57:50.460Z,266.00
2023-12-19T08:58:50.452Z,248.00
2023-12-19T08:59:50.276Z,230.00
2023-12-19T09:00:50.343Z,224.00
2023-12-19T09:01:50.378Z,222.00
2023-12-19T09:02:50.227Z,216.00
2023-12-19T09:03:50.269Z,222.00
2023-12-19T09:04:52.539Z,212.00
2023-12-19T09:05:50.248Z,220.00
2023-12-19T09:06:50.230Z,239.00
2023-12-19T09:07:50.214Z,255.00
2023-12-19T09:08:50.175Z,305.00
2023-12-19T09:09:50.221Z,410.00
2023-12-19T09:10:50.188Z,411.00
2023-12-19T09:11:50.137Z,393.00
2023-12-19T09:12:50.522Z,380.00
2023-12-19T09:13:50.145Z,356.00
2023-12-19T09:14:50.112Z,318.00
2023-12-19T09:15:50.187Z,306.00
2023-12-19T09:16:50.087Z,302.00
2023-12-19T09:17:50.124Z,298.00
2023-12-19T09:18:50.290Z,282.00
2023-12-19T09:19:50.147Z,278.00
2023-12-19T09:20:50.029Z,267.00
2023-12-19T09:21:50.097Z,268.00
2023-12-19T09:22:50.025Z,252.00
2023-12-19T09:23:50.016Z,263.00
2023-12-19T09:24:50.012Z,229.00
2023-12-19T09:25:50.006Z,252.00
2023-12-19T09:26:49.980Z,279.00
2023-12-19T09:27:50.023Z,306.00
2023-12-19T09:28:52.100Z,435.00
2023-12-19T09:29:49.985Z,320.00
2023-12-19T09:30:50.019Z,395.00
2023-12-19T09:31:49.977Z,476.00
2023-12-19T09:32:49.944Z,701.00
2023-12-19T09:33:49.989Z,816.00
2023-12-19T09:34:49.973Z,640.00
2023-12-19T09:35:49.911Z,535.00
2023-12-19T09:36:56.157Z,560.00
2023-12-19T09:37:49.878Z,532.00
2023-12-19T09:38:49.972Z,436.00
2023-12-19T09:39:49.902Z,360.00
2023-12-19T09:40:49.827Z,331.00
2023-12-19T09:41:49.853Z,314.00
2023-12-19T09:42:50.112Z,315.00
2023-12-19T09:43:49.812Z,312.00
2023-12-19T09:44:49.785Z,310.00
2023-12-19T09:45:49.836Z,317.00
2023-12-19T09:46:49.769Z,317.00
2023-12-19T09:47:49.791Z,320.00
2023-12-19T09:48:49.833Z,326.00
2023-12-19T09:49:49.830Z,310.00
2023-12-19T09:50:49.718Z,307.00
2023-12-19T09:51:49.819Z,304.00
2023-12-19T09:52:49.724Z,302.00
2023-12-19T09:53:49.716Z,297.00
2023-12-19T09:54:49.731Z,293.00
2023-12-19T09:55:49.704Z,290.00
2023-12-19T09:56:49.699Z,286.00
2023-12-19T09:57:49.697Z,292.00
2023-12-19T09:58:49.637Z,291.00
2023-12-19T09:59:54.962Z,295.00
2023-12-19T10:00:49.681Z,287.00
2023-12-19T10:01:49.770Z,249.00
2023-12-19T10:02:49.610Z,255.00
2023-12-19T10:03:49.674Z,314.00
2023-12-19T10:04:49.717Z,334.00
2023-12-19T10:05:49.659Z,337.00
2023-12-19T10:06:52.534Z,322.00
2023-12-19T10:07:49.596Z,336.00
2023-12-19T10:08:49.537Z,323.00
2023-12-19T10:09:49.573Z,323.00
2023-12-19T10:10:49.544Z,332.00
2023-12-19T10:11:49.516Z,329.00
2023-12-19T10:12:56.878Z,338.00
2023-12-19T10:13:49.612Z,329.00
2023-12-19T10:14:49.472Z,325.00
2023-12-19T10:16:27.257Z,334.00
2023-12-19T10:16:49.548Z,343.00
2023-12-19T10:17:49.491Z,346.00
2023-12-19T10:18:50.782Z,347.00
2023-12-19T10:19:49.532Z,334.00
2023-12-19T10:20:49.410Z,330.00
2023-12-19T10:21:49.458Z,330.00
2023-12-19T10:22:49.384Z,341.00
2023-12-19T10:23:49.419Z,290.00
2023-12-19T10:24:49.440Z,319.00
2023-12-19T10:25:49.379Z,359.00
2023-12-19T10:26:49.347Z,392.00
2023-12-19T10:27:49.400Z,419.00
2023-12-19T10:28:49.344Z,448.00
2023-12-19T10:29:50.205Z,561.00
2023-12-19T10:30:49.386Z,565.00
2023-12-19T10:31:49.431Z,599.00
2023-12-19T10:32:49.322Z,586.00
2023-12-19T10:33:49.406Z,637.00
2023-12-19T10:34:49.379Z,514.00
2023-12-19T10:35:49.264Z,468.00
2023-12-19T10:36:49.289Z,443.00
2023-12-19T10:37:49.464Z,401.00
2023-12-19T10:38:49.228Z,388.00
2023-12-19T10:39:49.269Z,371.00
2023-12-19T10:40:49.216Z,376.00
2023-12-19T10:41:49.235Z,366.00
2023-12-19T10:42:49.238Z,337.00
2023-12-19T10:43:51.042Z,346.00
2023-12-19T10:44:49.158Z,344.00
2023-12-19T10:45:49.225Z,338.00
2023-12-19T10:46:49.163Z,340.00
2023-12-19T10:47:49.144Z,355.00
2023-12-19T10:48:49.321Z,392.00
2023-12-19T10:49:53.001Z,336.00
2023-12-19T10:50:49.241Z,401.00
2023-12-19T10:51:49.136Z,295.00
2023-12-19T10:52:49.103Z,390.00
2023-12-19T10:53:49.051Z,417.00
2023-12-19T10:54:49.074Z,363.00
2023-12-19T10:55:49.057Z,370.00
2023-12-19T10:56:49.061Z,392.00
2023-12-19T10:57:49.094Z,366.00
2023-12-19T10:58:49.031Z,414.00
2023-12-19T10:59:49.003Z,362.00
2023-12-19T11:00:49.081Z,340.00
2023-12-19T11:01:49.083Z,446.00
2023-12-19T11:02:49.006Z,367.00
2023-12-19T11:03:49.124Z,329.00
2023-12-19T11:04:49.002Z,315.00
2023-12-19T11:05:49.056Z,388.00
2023-12-19T11:06:49.034Z,393.00
2023-12-19T11:07:48.907Z,392.00
2023-12-19T11:08:48.915Z,401.00
2023-12-19T11:09:48.938Z,420.00
2023-12-19T11:10:48.897Z,407.00
2023-12-19T11:11:48.878Z,411.00
2023-12-19T11:12:48.915Z,382.00
2023-12-19T11:13:48.840Z,370.00
2023-12-19T11:14:48.868Z,386.00
2023-12-19T11:15:48.854Z,373.00
2023-12-19T11:16:48.833Z,345.00
2023-12-19T11:17:49.318Z,432.00
2023-12-19T11:18:49.371Z,339.00
2023-12-19T11:19:48.845Z,380.00
2023-12-19T11:20:48.890Z,353.00
2023-12-19T11:21:48.819Z,357.00
2023-12-19T11:22:48.792Z,406.00
2023-12-19T11:23:48.737Z,444.00
2023-12-19T11:24:48.766Z,431.00
2023-12-19T11:25:51.487Z,471.00
2023-12-19T11:26:48.725Z,431.00
2023-12-19T11:27:48.741Z,431.00
2023-12-19T11:28:48.725Z,365.00
2023-12-19T11:29:48.825Z,331.00
2023-12-19T11:30:48.755Z,388.00
2023-12-19T11:31:48.735Z,382.00
2023-12-19T11:32:48.797Z,398.00
2023-12-19T11:33:48.757Z,397.00
2023-12-19T11:34:48.752Z,421.00
2023-12-19T11:35:48.610Z,436.00
2023-12-19T11:36:48.625Z,458.00
2023-12-19T11:37:49.149Z,346.00
2023-12-19T11:38:48.659Z,333.00
2023-12-19T11:39:48.594Z,339.00
2023-12-19T11:40:48.574Z,342.00
2023-12-19T11:41:48.544Z,407.00
2023-12-19T11:42:48.607Z,301.00
2023-12-19T11:43:48.522Z,407.00
2023-12-19T11:44:48.537Z,388.00
2023-12-19T11:45:48.525Z,342.00
2023-12-19T11:46:48.534Z,292.00
2023-12-19T11:47:48.816Z,407.00
2023-12-19T11:48:48.733Z,331.00
2023-12-19T11:49:48.549Z,302.00
2023-12-19T11:50:48.481Z,333.00
2023-12-19T11:51:48.462Z,375.00
2023-12-19T11:52:48.443Z,397.00
2023-12-19T11:53:48.424Z,446.00
2023-12-19T11:54:48.450Z,535.00
2023-12-19T11:55:48.394Z,1315.00
2023-12-19T11:56:48.428Z,520.00
2023-12-19T11:57:54.346Z,619.00
2023-12-19T11:58:48.785Z,690.00
2023-12-19T11:59:48.350Z,2147.00
2023-12-19T12:00:48.420Z,823.00
2023-12-19T12:01:48.430Z,680.00
2023-12-19T12:02:48.360Z,425.00
2023-12-19T12:03:48.377Z,259.00
2023-12-19T12:04:48.369Z,176.00
2023-12-19T12:05:48.304Z,215.00
2023-12-19T12:06:48.337Z,234.00
2023-12-19T12:07:48.262Z,261.00
2023-12-19T12:08:48.297Z,302.00
2023-12-19T12:09:48.255Z,246.00
2023-12-19T12:10:48.252Z,265.00
2023-12-19T12:11:48.232Z,319.00
2023-12-19T12:12:48.311Z,261.00
2023-12-19T12:13:48.203Z,409.00
2023-12-19T12:14:48.209Z,558.00
2023-12-19T12:15:48.180Z,174.00
2023-12-19T12:16:48.200Z,222.00
2023-12-19T12:17:48.421Z,193.00
2023-12-19T12:18:48.290Z,222.00
2023-12-19T12:19:48.186Z,272.00
2023-12-19T12:20:48.149Z,1008.00
2023-12-19T12:21:48.146Z,376.00
2023-12-19T12:22:48.136Z,291.00
2023-12-19T12:23:48.091Z,227.00
2023-12-19T12:24:48.118Z,217.00
2023-12-19T12:25:48.125Z,234.00
2023-12-19T12:26:48.095Z,317.00
2023-12-19T12:27:48.400Z,314.00
2023-12-19T12:28:48.054Z,352.00
2023-12-19T12:29:48.019Z,224.00
2023-12-19T12:30:48.124Z,226.00
2023-12-19T12:31:48.129Z,267.00
2023-12-19T12:32:48.033Z,470.00
2023-12-19T12:33:47.999Z,689.00
2023-12-19T12:34:48.032Z,219.00
2023-12-19T12:35:47.987Z,206.00
2023-12-19T12:36:48.007Z,259.00
2023-12-19T12:37:47.939Z,260.00
2023-12-19T12:38:47.982Z,261.00
2023-12-19T12:39:47.946Z,231.00
2023-12-19T12:40:47.913Z,227.00
2023-12-19T12:41:47.908Z,223.00
2023-12-19T12:42:47.935Z,236.00
2023-12-19T12:43:47.870Z,232.00
2023-12-19T12:44:47.886Z,272.00
2023-12-19T12:45:47.904Z,240.00
2023-12-19T12:46:47.855Z,234.00
2023-12-19T12:47:48.136Z,236.00
2023-12-19T12:48:48.080Z,228.00
2023-12-19T12:49:47.937Z,226.00
2023-12-19T12:50:47.923Z,216.00
2023-12-19T12:51:47.795Z,213.00
2023-12-19T12:52:47.780Z,211.00
2023-12-19T12:53:47.769Z,210.00
2023-12-19T12:54:47.854Z,195.00
2023-12-19T12:55:47.751Z,146.00
2023-12-19T12:56:47.756Z,146.00